Time;durP1;ratioP1;P1;durP2;ratioP2;P2;SDS_P1;SDS_P2;PMS_P1;PMS_P2;Temp;Humidity;BMP_temperature;BMP_pressure;BME280_temperature;BME280_humidity;BME280_pressure;Samples;Min_cycle;Max_cycle;Signal;HPM_P1;HPM_P2
2022/05/24 00:01:03;;;;;;;3.90;2.05;;;;;;;23.61;38.45;99454.00;5062414;28;20029;-58
2022/05/24 00:03:28;;;;;;;1.75;1.65;;;;;;;23.60;38.83;99449.66;5049534;28;20040;-56
2022/05/24 00:05:54;;;;;;;2.47;1.58;;;;;;;23.59;38.47;99453.16;5055246;28;20540;-57
2022/05/24 00:08:24;;;;;;;1.90;1.80;;;;;;;23.53;38.41;99444.59;5047168;28;20020;-55
2022/05/24 00:10:49;;;;;;;2.33;1.88;;;;;;;23.61;38.99;99448.75;5053723;28;20032;-55
2022/05/24 00:13:15;;;;;;;1.92;1.83;;;;;;;23.61;38.58;99454.00;5045565;28;20033;-56
2022/05/24 00:15:40;;;;;;;1.45;1.35;;;;;;;23.60;38.49;99447.00;5050647;28;20467;-56
2022/05/24 00:18:16;;;;;;;2.35;1.80;;;;;;;23.61;38.44;99448.75;5046524;28;20039;-59
2022/05/24 00:20:56;;;;;;;1.70;1.60;;;;;;;23.62;38.49;99447.84;5068754;28;20033;-56
2022/05/24 00:23:23;;;;;;;1.08;1.08;;;;;;;23.62;38.46;99445.22;5052971;28;20074;-55
2022/05/24 00:25:52;;;;;;;1.73;1.63;;;;;;;23.62;38.82;99447.84;5055365;28;20032;-56
2022/05/24 00:28:19;;;;;;;1.50;1.40;;;;;;;23.61;38.92;99447.91;5056358;28;20040;-56
2022/05/24 00:30:46;;;;;;;1.85;1.75;;;;;;;23.61;38.70;99443.50;5043608;28;20039;-53
2022/05/24 00:33:11;;;;;;;5.47;1.70;;;;;;;23.62;39.03;99450.47;5046030;28;20027;-55
2022/05/24 00:35:37;;;;;;;1.80;1.70;;;;;;;23.63;39.11;99464.50;5046722;28;20055;-55
2022/05/24 00:38:04;;;;;;;2.28;2.05;;;;;;;23.61;38.82;99464.50;5046266;28;20067;-59
2022/05/24 00:40:53;;;;;;;1.83;1.73;;;;;;;23.54;38.83;99449.78;5038720;28;20025;-57
2022/05/24 00:43:36;;;;;;;1.55;1.45;;;;;;;23.60;38.65;99452.28;5033743;28;20166;-56
2022/05/24 00:46:05;;;;;;;1.98;1.65;;;;;;;23.62;38.89;99466.25;5038762;28;20025;-57
2022/05/24 00:48:38;;;;;;;1.63;1.48;;;;;;;23.63;38.88;99472.38;5047256;28;20033;-54
2022/05/24 00:51:07;;;;;;;2.63;2.13;;;;;;;23.62;38.89;99460.97;5038782;28;20047;-59
2022/05/24 00:53:46;;;;;;;1.73;1.63;;;;;;;23.54;38.50;99447.16;5041737;28;20449;-54
2022/05/24 00:56:16;;;;;;;1.65;1.55;;;;;;;23.61;38.82;99464.50;5023389;28;20035;-57
2022/05/24 00:59:01;;;;;;;3.85;2.05;;;;;;;23.62;39.30;99471.50;5038545;28;20067;-60
2022/05/24 01:01:34;;;;;;;;;;;;;;;23.63;39.39;99473.22;5032442;28;20037;-56
2022/05/24 01:03:59;;;;;;;2.20;1.85;;;;;;;23.62;39.12;99466.25;5051983;28;19919;-58
2022/05/24 01:06:25;;;;;;;2.95;1.98;;;;;;;23.61;38.79;99467.13;5055222;28;20024;-54
2022/05/24 01:08:52;;;;;;;1.50;1.40;;;;;;;23.62;39.23;99466.25;5050662;28;20037;-56
2022/05/24 01:11:21;;;;;;;3.13;2.20;;;;;;;23.62;39.12;99474.13;5037527;28;20062;-54
2022/05/24 01:13:51;;;;;;;1.73;1.63;;;;;;;23.63;38.92;99478.47;5037768;28;20024;-56
2022/05/24 01:16:17;;;;;;;3.33;1.63;;;;;;;23.61;39.74;99464.50;5068046;28;20123;-53
2022/05/24 01:18:43;;;;;;;1.60;1.50;;;;;;;23.62;39.50;99476.75;5044423;28;20136;-57
2022/05/24 01:21:11;;;;;;;1.70;1.60;;;;;;;23.61;38.89;99469.75;5052705;28;20039;-60
2022/05/24 01:23:47;;;;;;;2.75;1.98;;;;;;;23.62;39.40;99470.66;5025005;28;20028;-54
2022/05/24 01:26:18;;;;;;;1.48;1.38;;;;;;;23.62;39.00;99482.00;5053933;28;20039;-58
2022/05/24 01:28:52;;;;;;;1.77;1.67;;;;;;;23.60;38.99;99478.56;5049379;28;20039;-58
2022/05/24 01:31:18;;;;;;;4.57;1.75;;;;;;;23.62;39.21;99476.75;5051361;28;20021;-59
2022/05/24 01:36:29;;;;;;;2.97;1.77;;;;;;;23.61;39.55;99482.06;5053683;28;20307;-57
2022/05/24 01:39:00;;;;;;;1.85;1.75;;;;;;;23.61;39.03;99485.53;5026267;28;20529;-57
2022/05/24 01:41:48;;;;;;;1.92;1.80;;;;;;;23.62;39.24;99487.25;5027052;28;20028;-58
2022/05/24 01:44:20;;;;;;;4.88;1.65;;;;;;;23.62;39.61;99497.78;5045676;28;20025;-57
2022/05/24 01:46:46;;;;;;;1.77;1.67;;;;;;;23.62;40.04;99503.03;5034277;28;20131;-55
2022/05/24 01:49:21;;;;;;;1.90;1.60;;;;;;;23.63;39.27;99510.00;5065036;28;20103;-57
2022/05/24 01:51:52;;;;;;;1.90;1.80;;;;;;;23.61;40.33;99505.72;5028697;28;20036;-57
2022/05/24 01:54:20;;;;;;;2.20;2.10;;;;;;;23.61;39.41;99511.81;5048786;28;20028;-59
2022/05/24 01:56:54;;;;;;;1.85;1.50;;;;;;;23.61;39.92;99511.81;5034667;28;20040;-56
2022/05/24 01:59:20;;;;;;;1.95;1.83;;;;;;;23.62;39.90;99529.31;5027904;28;20035;-59
2022/05/24 02:01:50;;;;;;;1.73;1.63;;;;;;;23.61;39.88;99532.84;5033636;28;20033;-55
2022/05/24 02:04:16;;;;;;;1.60;1.50;;;;;;;23.62;39.72;99538.97;5025323;28;20033;-58
2022/05/24 02:06:41;;;;;;;1.50;1.40;;;;;;;23.62;40.15;99544.22;5036580;28;20033;-58
2022/05/24 02:09:08;;;;;;;1.77;1.60;;;;;;;23.61;40.48;99555.66;5046532;28;20112;-61
2022/05/24 02:11:34;;;;;;;2.17;1.60;;;;;;;23.61;40.72;99564.38;5053341;28;20054;-58
2022/05/24 02:14:22;;;;;;;1.92;1.80;;;;;;;23.63;39.48;99567.84;5026015;28;20381;-57
2022/05/24 02:17:10;;;;;;;1.92;1.67;;;;;;;23.62;39.71;99581.88;5027190;28;20062;-52
2022/05/24 02:19:38;;;;;;;1.60;1.50;;;;;;;23.62;39.99;99587.13;5046847;28;20047;-53
2022/05/24 02:22:09;;;;;;;1.80;1.70;;;;;;;23.62;40.63;99586.28;5029153;28;20029;-56
2022/05/24 02:24:34;;;;;;;2.08;1.75;;;;;;;23.61;39.66;99585.41;5059853;28;20025;-55
2022/05/24 02:27:02;;;;;;;1.60;1.50;;;;;;;23.62;39.77;99592.41;5053122;28;20036;-56
2022/05/24 02:29:27;;;;;;;2.90;1.75;;;;;;;23.62;40.32;99595.03;5030725;28;20440;-59
2022/05/24 02:31:55;;;;;;;2.03;1.90;;;;;;;23.60;40.59;99599.44;5035039;28;20068;-57
2022/05/24 02:34:20;;;;;;;8.05;1.40;;;;;;;23.62;39.84;99597.66;5047741;28;20082;-55
2022/05/24 02:36:48;;;;;;;1.50;1.40;;;;;;;23.60;40.00;99609.97;5072460;28;20032;-56
2022/05/24 02:39:13;;;;;;;2.85;1.95;;;;;;;23.60;40.10;99620.47;5049776;28;20048;-58
2022/05/24 02:41:39;;;;;;;1.33;1.23;;;;;;;23.62;40.54;99623.94;5049475;28;20024;-56
2022/05/24 02:44:07;;;;;;;1.88;1.73;;;;;;;23.61;39.78;99622.19;5049428;28;20148;-54
2022/05/24 02:46:35;;;;;;;1.70;1.60;;;;;;;23.61;40.21;99627.47;5053250;28;20477;-56
2022/05/24 02:49:01;;;;;;;2.70;2.17;;;;;;;23.61;40.59;99637.97;5046629;28;20050;-55
2022/05/24 02:51:28;;;;;;;1.70;1.60;;;;;;;23.48;40.46;99610.22;5031850;28;20043;-54
2022/05/24 02:53:54;;;;;;;1.92;1.83;;;;;;;23.62;39.92;99639.69;5049294;28;20075;-56
2022/05/24 02:56:22;;;;;;;2.53;1.63;;;;;;;23.62;40.99;99650.22;5046992;28;20464;-56
2022/05/24 02:58:47;;;;;;;2.78;1.42;;;;;;;23.62;40.80;99644.97;5048357;28;20044;-56
2022/05/24 03:01:19;;;;;;;1.70;1.25;;;;;;;23.62;40.67;99644.97;5075321;28;20028;-58
2022/05/24 03:03:46;;;;;;;1.65;1.55;;;;;;;23.61;40.35;99643.22;5033516;28;20056;-57
2022/05/24 03:06:11;;;;;;;1.77;1.58;;;;;;;23.61;40.17;99648.47;5050240;28;20035;-58
2022/05/24 03:11:23;;;;;;;1.33;1.17;;;;;;;23.62;40.51;99649.38;5057376;28;20077;-56
2022/05/24 03:16:33;;;;;;;1.93;1.83;;;;;;;23.62;40.46;99665.97;5058321;28;20344;-58
2022/05/24 03:19:00;;;;;;;3.85;1.33;;;;;;;23.54;40.47;99657.38;5057233;28;20388;-55
2022/05/24 03:21:25;;;;;;;2.22;1.83;;;;;;;23.60;40.99;99667.78;5050507;28;20029;-58
2022/05/24 03:23:51;;;;;;;3.33;1.75;;;;;;;23.61;40.88;99674.75;5050250;28;20108;-62
2022/05/24 03:26:16;;;;;;;2.45;1.70;;;;;;;23.60;40.72;99678.28;5056885;28;20028;-58
2022/05/24 03:28:42;;;;;;;1.20;1.15;;;;;;;23.61;40.92;99684.44;5040046;28;20032;-59
2022/05/24 03:31:10;;;;;;;2.35;1.58;;;;;;;23.60;40.65;99682.69;5062810;28;20075;-59
2022/05/24 03:33:45;;;;;;;1.42;1.33;;;;;;;23.60;40.53;99688.81;5020658;28;20120;-59
2022/05/24 03:36:13;;;;;;;1.92;1.83;;;;;;;23.61;40.62;99695.78;5048937;28;20033;-56
2022/05/24 03:38:38;;;;;;;1.80;1.70;;;;;;;23.60;40.81;99694.06;5047608;28;20462;-58
2022/05/24 03:41:03;;;;;;;2.75;2.22;;;;;;;23.53;40.93;99681.94;5071675;28;20032;-55
2022/05/24 03:43:29;;;;;;;1.98;1.58;;;;;;;23.62;40.38;99699.31;5045422;28;20044;-54
2022/05/24 03:46:07;;;;;;;2.28;1.67;;;;;;;23.60;40.71;99708.97;5050597;28;20036;-58
2022/05/24 03:48:33;;;;;;;1.63;1.40;;;;;;;23.60;40.71;99711.59;5039089;28;20029;-56
2022/05/24 03:50:58;;;;;;;1.30;1.30;;;;;;;23.61;40.31;99722.06;5073736;28;20047;-54
2022/05/24 03:53:27;;;;;;;1.33;1.25;;;;;;;23.61;40.37;99722.06;5064994;28;20021;-54
2022/05/24 03:55:53;;;;;;;2.53;1.60;;;;;;;23.62;40.46;99730.84;5047291;28;20036;-56
2022/05/24 03:58:19;;;;;;;1.45;1.35;;;;;;;23.47;40.35;99697.81;5036252;28;20036;-57
2022/05/24 04:00:48;;;;;;;2.05;1.70;;;;;;;23.61;40.87;99727.31;5033636;28;20024;-57
2022/05/24 04:03:16;;;;;;;1.75;1.65;;;;;;;23.59;40.65;99734.38;5061311;28;20029;-57
2022/05/24 04:05:46;;;;;;;2.97;2.03;;;;;;;23.60;40.40;99741.38;5054049;28;20032;-56
2022/05/24 04:08:14;;;;;;;1.77;1.67;;;;;;;23.59;40.90;99744.88;5035047;28;20032;-57
2022/05/24 04:10:40;;;;;;;2.08;1.85;;;;;;;23.61;41.17;99753.63;5052363;28;20024;-56
2022/05/24 04:13:05;;;;;;;4.57;1.92;;;;;;;23.60;40.95;99762.41;5022770;28;20027;-56
2022/05/24 04:15:30;;;;;;;1.70;1.60;;;;;;;23.62;41.21;99757.13;5073452;28;20461;-57
2022/05/24 04:17:56;;;;;;;1.48;1.45;;;;;;;23.60;41.62;99762.41;5065268;28;20081;-58
2022/05/24 04:20:24;;;;;;;1.77;1.67;;;;;;;23.59;40.95;99759.81;5073183;28;20055;-57
2022/05/24 04:22:52;;;;;;;1.63;1.45;;;;;;;23.62;41.11;99754.50;5021656;28;20456;-59
2022/05/24 04:25:17;;;;;;;1.33;1.30;;;;;;;23.61;40.54;99766.75;5030738;28;20124;-56
2022/05/24 04:27:42;;;;;;;1.63;1.52;;;;;;;23.63;41.44;99772.84;5063967;28;20119;-55
2022/05/24 04:30:10;;;;;;;1.58;1.48;;;;;;;23.63;40.68;99777.25;5038138;28;20074;-56
2022/05/24 04:32:35;;;;;;;1.60;1.27;;;;;;;23.54;40.44;99766.91;5051588;28;20028;-54
2022/05/24 04:35:00;;;;;;;2.35;2.15;;;;;;;23.61;40.50;99785.16;5052691;28;20029;-56
2022/05/24 04:37:26;;;;;;;1.70;1.60;;;;;;;23.60;40.44;99783.41;5028050;28;20503;-57
2022/05/24 04:39:54;;;;;;;2.55;1.50;;;;;;;23.60;41.01;99778.16;5030298;28;20036;-57
2022/05/24 04:42:19;;;;;;;1.50;1.40;;;;;;;23.61;40.68;99785.16;5042726;28;20059;-53
2022/05/24 04:44:53;;;;;;;1.88;1.77;;;;;;;23.60;40.95;99778.16;5052151;28;20429;-58
2022/05/24 04:47:20;;;;;;;1.30;1.20;;;;;;;23.61;41.14;99774.63;5063368;28;20125;-55
2022/05/24 04:50:05;;;;;;;1.50;1.40;;;;;;;23.60;41.19;99770.28;5021207;28;20067;-56
2022/05/24 04:52:33;;;;;;;1.20;1.10;;;;;;;23.61;41.02;99785.16;5024927;28;20498;-59
2022/05/24 04:54:59;;;;;;;1.08;1.05;;;;;;;23.61;40.90;99790.41;5035324;28;20063;-53
2022/05/24 04:57:26;;;;;;;1.85;1.67;;;;;;;23.61;41.02;99798.28;5054328;28;20457;-54
2022/05/24 04:59:52;;;;;;;1.60;1.50;;;;;;;23.60;41.30;99804.44;5053371;28;20035;-57
2022/05/24 05:02:19;;;;;;;1.88;1.40;;;;;;;23.59;41.28;99823.75;5027261;28;20119;-55
2022/05/24 05:04:44;;;;;;;1.10;1.10;;;;;;;23.61;41.12;99816.69;5060542;28;20119;-56
2022/05/24 05:07:12;;;;;;;1.70;1.60;;;;;;;23.58;41.09;99824.63;5026856;28;20129;-55
2022/05/24 05:09:38;;;;;;;1.60;1.50;;;;;;;23.58;40.76;99822.00;5066183;28;20079;-56
2022/05/24 05:12:08;;;;;;;1.30;1.30;;;;;;;23.61;40.64;99821.94;5065843;28;20033;-56
2022/05/24 05:14:35;;;;;;;1.40;1.30;;;;;;;23.60;41.57;99828.09;5050653;28;20085;-54
2022/05/24 05:17:00;;;;;;;1.63;1.48;;;;;;;23.58;40.97;99822.00;5031902;28;20124;-52
2022/05/24 05:19:28;;;;;;;1.27;1.20;;;;;;;23.60;41.42;99825.47;5059891;28;20029;-57
2022/05/24 05:21:54;;;;;;;1.30;1.20;;;;;;;23.60;41.12;99822.00;5031320;28;20037;-55
2022/05/24 05:24:19;;;;;;;4.22;1.60;;;;;;;23.61;41.20;99826.34;5046557;28;20039;-56
2022/05/24 05:26:49;;;;;;;7.95;1.67;;;;;;;23.60;40.78;99820.22;5053843;28;20356;-55
2022/05/24 05:29:14;;;;;;;2.42;1.50;;;;;;;23.59;41.08;99813.22;5047949;28;20032;-50
2022/05/24 05:31:40;;;;;;;2.03;1.30;;;;;;;23.60;41.34;99814.09;5065394;28;20371;-56
2022/05/24 05:34:05;;;;;;;1.33;1.23;;;;;;;23.61;41.63;99807.97;5034215;28;20627;-57
2022/05/24 05:36:32;;;;;;;1.00;1.00;;;;;;;23.62;41.42;99813.16;5054444;28;20032;-57
2022/05/24 05:38:57;;;;;;;1.38;1.27;;;;;;;23.62;41.60;99823.69;5038847;28;20120;-55
2022/05/24 05:41:28;;;;;;;1.50;1.15;;;;;;;23.64;41.29;99827.16;5042255;28;20116;-54
2022/05/24 05:43:54;;;;;;;1.30;1.20;;;;;;;23.53;41.10;99802.81;5052250;28;20032;-56
2022/05/24 05:46:20;;;;;;;2.63;1.67;;;;;;;23.64;41.10;99827.16;5045367;28;20037;-57
2022/05/24 05:48:46;;;;;;;1.48;1.17;;;;;;;23.67;41.42;99835.88;5034127;28;20036;-56
2022/05/24 05:51:14;;;;;;;2.00;1.80;;;;;;;23.67;40.57;99828.00;5046216;28;20332;-57
2022/05/24 05:53:40;;;;;;;2.72;1.55;;;;;;;23.53;40.94;99818.59;5046745;28;20028;-55
2022/05/24 05:56:11;;;;;;;1.25;1.20;;;;;;;23.67;40.62;99835.88;5045664;28;20527;-54
2022/05/24 05:58:36;;;;;;;1.90;1.60;;;;;;;23.66;41.31;99834.13;5066858;28;20397;-59
2022/05/24 06:01:02;;;;;;;1.58;1.48;;;;;;;23.68;40.75;99842.88;5023438;28;20039;-54
2022/05/24 06:03:27;;;;;;;1.25;1.13;;;;;;;23.67;41.03;99846.38;5061482;28;20029;-57
2022/05/24 06:05:55;;;;;;;1.50;1.40;;;;;;;23.64;41.35;99842.06;5069237;28;20465;-56
2022/05/24 06:08:23;;;;;;;3.70;1.23;;;;;;;23.66;40.98;99845.53;5061951;28;20064;-60
2022/05/24 06:10:51;;;;;;;2.10;1.10;;;;;;;23.66;40.63;99839.41;5033850;28;20041;-54
2022/05/24 06:13:16;;;;;;;1.45;1.30;;;;;;;23.63;41.08;99849.06;5069546;28;20121;-57
2022/05/24 06:15:42;;;;;;;1.42;1.38;;;;;;;23.64;41.07;99853.44;5058082;28;20501;-55
2022/05/24 06:18:07;;;;;;;2.90;1.60;;;;;;;23.62;41.76;99860.47;5065401;28;20033;-56
2022/05/24 06:20:33;;;;;;;1.27;1.17;;;;;;;23.68;41.76;99869.16;5065814;28;20166;-59
2022/05/24 06:22:58;;;;;;;1.52;1.42;;;;;;;23.62;41.32;99876.25;5023236;28;20381;-55
2022/05/24 06:25:26;;;;;;;1.20;1.20;;;;;;;23.64;41.16;99877.09;5065644;28;20393;-52
2022/05/24 06:27:52;;;;;;;1.80;1.50;;;;;;;23.69;41.29;99891.91;5063163;28;20045;-53
2022/05/24 06:30:20;;;;;;;2.10;1.23;;;;;;;23.68;40.98;99890.19;5052379;28;20489;-51
2022/05/24 06:32:46;;;;;;;1.52;1.42;;;;;;;23.67;41.05;99891.97;5036608;28;20457;-55
2022/05/24 06:35:11;;;;;;;1.40;1.27;;;;;;;23.68;41.17;99896.31;5029131;28;20025;-51
2022/05/24 06:37:40;;;;;;;1.60;1.50;;;;;;;23.60;41.44;99885.91;5038324;28;20072;-52
2022/05/24 06:40:07;;;;;;;1.50;1.40;;;;;;;23.66;41.11;99899.84;5068592;28;20480;-53
2022/05/24 06:42:34;;;;;;;1.33;1.23;;;;;;;23.67;41.34;99898.97;5033123;28;20021;-57
2022/05/24 06:45:02;;;;;;;1.13;1.13;;;;;;;23.65;41.40;99906.88;5042393;28;20037;-53
2022/05/24 06:47:32;;;;;;;1.02;1.02;;;;;;;23.68;41.23;99911.22;5049683;28;20029;-53
2022/05/24 06:49:57;;;;;;;0.90;0.90;;;;;;;23.58;41.26;99890.34;5042850;28;20032;-53
2022/05/24 06:52:23;;;;;;;1.33;1.23;;;;;;;23.67;41.02;99910.38;5042669;28;20103;-50
2022/05/24 06:54:51;;;;;;;1.40;1.30;;;;;;;23.66;40.91;99907.75;5035522;28;20119;-51
2022/05/24 06:57:20;;;;;;;1.15;1.08;;;;;;;23.66;41.64;99918.25;5052091;28;20044;-51
2022/05/24 07:02:30;;;;;;;3.80;2.03;;;;;;;23.67;41.63;99914.72;5036506;28;20036;-49
2022/05/24 07:05:04;;;;;;;1.00;0.95;;;;;;;23.66;41.15;99918.25;5048488;28;20024;-54
2022/05/24 07:07:33;;;;;;;1.77;1.58;;;;;;;23.66;41.84;99918.25;5070739;28;20024;-54
2022/05/24 07:09:58;;;;;;;1.25;1.15;;;;;;;23.68;41.45;99927.88;5026154;28;20029;-56
2022/05/24 07:12:24;;;;;;;2.58;1.67;;;;;;;23.67;41.45;99927.88;5028841;28;20094;-53
2022/05/24 07:14:50;;;;;;;1.17;1.10;;;;;;;23.68;41.21;99932.25;5035019;28;20052;-56
2022/05/24 07:17:17;;;;;;;1.00;1.00;;;;;;;23.60;41.36;99920.09;5053220;28;20071;-53
2022/05/24 07:19:45;;;;;;;1.38;1.27;;;;;;;23.59;41.67;99928.88;5020506;28;20123;-55
2022/05/24 07:22:14;;;;;;;1.40;1.30;;;;;;;23.65;41.42;99938.44;5057033;28;20795;-53
2022/05/24 07:24:40;;;;;;;1.38;1.27;;;;;;;23.64;41.29;99940.19;5035080;28;20028;-54
2022/05/24 07:27:11;;;;;;;1.50;1.40;;;;;;;23.67;41.16;99935.75;5031091;28;20488;-56
2022/05/24 07:29:36;;;;;;;1.00;1.00;;;;;;;23.68;41.54;99932.25;5036957;28;20040;-53
2022/05/24 07:32:04;;;;;;;1.35;1.25;;;;;;;23.68;41.09;99929.63;5057567;28;20153;-55
2022/05/24 07:34:29;;;;;;;1.52;1.30;;;;;;;23.72;41.30;99933.94;5053461;28;20033;-56
2022/05/24 07:36:57;;;;;;;3.90;2.15;;;;;;;23.73;41.39;99931.28;5046053;28;20036;-54
2022/05/24 07:39:23;;;;;;;3.22;1.40;;;;;;;23.73;41.58;99935.66;5052527;28;20037;-59
2022/05/24 07:47:16;;;;;;;2.20;2.08;;;;;;;23.72;41.50;99952.31;5051009;28;20027;-58
2022/05/24 07:49:41;;;;;;;2.72;1.35;;;;;;;23.71;41.71;99954.09;5052993;28;20693;-58
2022/05/24 07:52:08;;;;;;;1.50;1.40;;;;;;;23.70;41.39;99957.63;5054009;28;20033;-56
2022/05/24 07:54:33;;;;;;;1.33;1.23;;;;;;;23.72;40.94;99960.22;5056016;28;20024;-53
2022/05/24 07:57:00;;;;;;;5.03;1.70;;;;;;;23.73;41.63;99968.09;5069886;28;20029;-58
2022/05/24 07:59:25;;;;;;;2.05;1.65;;;;;;;23.75;42.15;99981.19;5066317;28;20024;-60
2022/05/24 08:01:51;;;;;;;6.45;2.92;;;;;;;23.56;42.20;99981.47;5055455;28;20136;-63
2022/05/24 08:04:16;;;;;;;2.75;2.55;;;;;;;23.31;43.04;99981.84;5051269;28;20121;-60
2022/05/24 08:06:42;;;;;;;2.58;2.38;;;;;;;23.14;42.98;99979.41;5052663;28;20039;-59
2022/05/24 08:09:07;;;;;;;3.95;3.50;;;;;;;23.00;43.52;99976.97;5051198;28;20024;-60
2022/05/24 08:11:33;;;;;;;3.45;3.15;;;;;;;23.01;43.25;99989.22;5052492;28;20495;-61
2022/05/24 08:13:59;;;;;;;3.65;3.35;;;;;;;22.98;43.07;99968.25;5052094;28;20095;-59
2022/05/24 08:16:27;;;;;;;4.35;3.92;;;;;;;22.83;43.34;99968.44;5029458;28;20036;-60
2022/05/24 08:18:53;;;;;;;3.55;3.28;;;;;;;22.85;43.69;99995.56;5052533;28;20246;-60
2022/05/24 08:21:21;;;;;;;6.10;3.50;;;;;;;22.81;43.34;99996.47;5048712;28;20054;-59
2022/05/24 08:23:46;;;;;;;3.58;3.28;;;;;;;22.89;43.35;100000.72;5051855;28;20074;-61
2022/05/24 08:26:12;;;;;;;3.95;3.47;;;;;;;22.92;42.97;99999.84;5022380;28;20379;-60
2022/05/24 08:28:38;;;;;;;4.28;3.05;;;;;;;22.84;42.78;100006.94;5036838;28;20515;-59
2022/05/24 08:31:03;;;;;;;4.20;3.78;;;;;;;22.76;43.27;100000.00;5034888;28;20028;-60
2022/05/24 08:33:29;;;;;;;5.38;2.22;;;;;;;22.82;42.61;100003.47;5060576;28;20031;-59
2022/05/24 08:35:54;;;;;;;9.20;4.05;;;;;;;22.76;43.74;100005.25;5051712;28;20044;-60
2022/05/24 08:38:21;;;;;;;6.13;3.25;;;;;;;22.90;42.78;100012.13;5034251;28;20036;-59
2022/05/24 08:40:53;;;;;;;4.53;2.78;;;;;;;22.84;42.80;100017.44;5036705;28;20476;-59
2022/05/24 08:43:30;;;;;;;4.00;2.95;;;;;;;22.66;42.99;100018.50;5040459;28;20029;-57
2022/05/24 08:48:46;;;;;;;4.05;2.92;;;;;;;22.66;42.58;100008.84;5058413;28;20071;-60
2022/05/24 08:51:20;;;;;;;3.38;3.08;;;;;;;22.62;42.95;100017.66;5070439;28;20036;-59
2022/05/24 08:53:47;;;;;;;3.92;3.00;;;;;;;22.59;43.13;100017.69;5036095;28;20036;-59
2022/05/24 08:56:23;;;;;;;3.53;2.92;;;;;;;22.57;42.72;100008.97;5038408;28;20469;-57
2022/05/24 08:58:51;;;;;;;3.28;2.58;;;;;;;22.62;42.81;100007.16;5052998;28;20024;-60
2022/05/24 09:01:24;;;;;;;3.67;2.88;;;;;;;22.76;42.62;100007.88;5028646;28;20028;-60
2022/05/24 09:03:50;;;;;;;2.85;2.65;;;;;;;22.81;42.63;100022.72;5024155;28;20400;-61
2022/05/24 09:06:34;;;;;;;5.10;3.33;;;;;;;22.67;42.99;100015.00;5050186;28;20028;-60
2022/05/24 09:09:16;;;;;;;3.30;3.00;;;;;;;22.70;42.81;100015.81;5064218;28;20031;-60
2022/05/24 09:12:09;;;;;;;4.70;3.67;;;;;;;22.61;43.20;100010.66;5035736;28;20431;-63
2022/05/24 09:15:11;;;;;;;5.97;3.03;;;;;;;22.60;43.03;100001.06;5030241;28;20119;-60
2022/05/24 09:17:37;;;;;;;5.28;3.35;;;;;;;22.70;42.75;100010.56;5031197;28;20503;-59
2022/05/24 09:20:35;;;;;;;6.93;3.78;;;;;;;22.71;43.23;100011.44;5064766;28;20040;-58
2022/05/24 09:23:06;;;;;;;6.03;3.22;;;;;;;22.58;43.13;99979.19;5044652;28;20070;-60
2022/05/24 09:28:04;;;;;;;2.75;2.55;;;;;;;22.94;42.54;100005.94;5053288;28;20049;-49
2022/05/24 09:30:30;;;;;;;3.42;3.13;;;;;;;22.90;42.70;100022.63;5045827;28;20025;-47
2022/05/24 09:33:25;;;;;;;3.90;3.03;;;;;;;22.86;42.85;100020.91;5025153;28;20025;-45
2022/05/24 09:36:00;;;;;;;3.50;3.20;;;;;;;22.85;42.60;100032.31;5016600;28;20087;-49
2022/05/24 09:38:34;;;;;;;3.33;2.85;;;;;;;22.77;42.57;100033.22;5030994;28;20044;-46
2022/05/24 09:41:18;;;;;;;3.95;2.65;;;;;;;22.77;42.63;100022.72;5032144;28;20111;-46
2022/05/24 09:44:08;;;;;;;2.88;2.67;;;;;;;22.74;42.65;100030.63;5033348;28;20040;-50
2022/05/24 09:46:36;;;;;;;3.83;2.95;;;;;;;22.73;42.35;100041.16;5030102;28;20123;-48
2022/05/24 09:49:16;;;;;;;3.33;3.03;;;;;;;22.61;42.23;100052.66;5034990;28;20039;-49
2022/05/24 09:51:42;;;;;;;7.57;3.67;;;;;;;22.57;42.13;100043.06;5028690;28;20549;-44
2022/05/24 09:54:22;;;;;;;4.00;3.20;;;;;;;22.61;42.69;100047.41;5049554;28;20100;-50
2022/05/24 09:57:09;;;;;;;3.92;3.63;;;;;;;22.54;42.55;100059.72;5045475;28;20493;-52
2022/05/24 09:59:39;;;;;;;4.97;3.65;;;;;;;22.60;42.49;100050.91;5027707;28;20044;-49
2022/05/24 10:02:24;;;;;;;4.07;3.67;;;;;;;22.57;42.53;100057.06;5033740;28;20037;-45
2022/05/24 10:04:50;;;;;;;3.85;3.15;;;;;;;22.62;42.45;100054.38;5052239;28;20033;-50
2022/05/24 10:07:25;;;;;;;5.47;3.83;;;;;;;22.50;42.29;100054.50;5049331;28;20086;-55
2022/05/24 10:09:59;;;;;;;8.02;3.72;;;;;;;22.55;42.50;100060.59;5029548;28;20029;-48
2022/05/24 10:12:31;;;;;;;3.10;2.50;;;;;;;22.51;42.84;100066.75;5033673;28;20036;-45
2022/05/24 10:14:59;;;;;;;3.42;3.13;;;;;;;22.49;43.10;100071.13;5049327;28;20029;-49
2022/05/24 10:17:49;;;;;;;6.05;3.88;;;;;;;22.53;42.72;100080.72;5037742;28;20059;-46
2022/05/24 10:21:02;;;;;;;4.90;3.50;;;;;;;22.40;42.56;100096.53;5032379;28;20047;-47
2022/05/24 10:23:41;;;;;;;3.60;3.30;;;;;;;22.62;42.15;100093.75;4971577;28;20434;-45
2022/05/24 10:26:32;;;;;;;3.47;3.17;;;;;;;22.83;41.91;100089.22;5039463;28;20049;-46
2022/05/24 10:29:04;;;;;;;3.90;2.67;;;;;;;22.97;41.74;100089.94;5016223;28;20040;-45
2022/05/24 10:31:29;;;;;;;3.22;2.67;;;;;;;23.04;41.67;100088.97;5051114;28;20029;-43
2022/05/24 10:40:28;;;;;;;3.42;2.92;;;;;;;23.19;41.59;100108.06;5048435;28;20160;-48
2022/05/24 10:43:19;;;;;;;3.78;2.60;;;;;;;23.19;41.52;100102.81;5013884;28;20115;-51
2022/05/24 10:45:52;;;;;;;2.75;2.30;;;;;;;23.22;41.25;100102.78;5048104;28;20029;-46
2022/05/24 10:48:29;;;;;;;2.85;2.60;;;;;;;23.26;41.41;100109.78;5027915;28;20029;-47
2022/05/24 10:51:02;;;;;;;3.80;1.75;;;;;;;23.30;41.77;100095.72;5050348;28;20043;-53
2022/05/24 10:53:39;;;;;;;2.63;2.33;;;;;;;23.32;41.63;100114.06;5032170;28;20032;-50
2022/05/24 10:56:09;;;;;;;2.60;2.15;;;;;;;23.38;41.32;100110.50;5013062;28;20497;-52
2022/05/24 10:58:36;;;;;;;1.88;1.60;;;;;;;23.40;41.25;100116.63;5032675;28;20508;-53
2022/05/24 11:01:10;;;;;;;3.70;2.45;;;;;;;23.40;41.52;100112.25;5017266;28;20029;-49
2022/05/24 11:03:42;;;;;;;3.13;2.60;;;;;;;23.43;41.21;100121.81;5034565;28;20052;-45
2022/05/24 11:06:26;;;;;;;2.08;1.95;;;;;;;23.44;41.52;100127.09;5028349;28;20068;-52
2022/05/24 11:08:54;;;;;;;3.38;2.33;;;;;;;23.41;41.02;100123.59;5037280;28;20034;-52
2022/05/24 11:11:57;;;;;;;3.67;2.38;;;;;;;23.39;41.34;100125.38;5045894;28;20039;-48
2022/05/24 11:14:42;;;;;;;6.38;2.72;;;;;;;23.38;41.61;100134.16;5054758;28;20111;-53
2022/05/24 11:17:11;;;;;;;3.35;2.60;;;;;;;23.38;42.05;100139.41;5019255;28;20040;-46
2022/05/24 11:19:39;;;;;;;3.78;2.35;;;;;;;23.38;41.96;100160.44;5020874;28;20378;-48
2022/05/24 11:22:16;;;;;;;3.63;2.08;;;;;;;23.39;41.75;100172.69;5036392;28;20033;-49
2022/05/24 11:24:51;;;;;;;2.20;2.10;;;;;;;23.40;41.46;100190.19;5051148;28;20037;-53
2022/05/24 11:27:23;;;;;;;2.40;2.20;;;;;;;23.41;41.71;100181.41;5022917;28;20036;-52
2022/05/24 11:29:52;;;;;;;3.67;2.22;;;;;;;23.40;42.06;100190.19;5049963;28;20036;-52
2022/05/24 11:32:39;;;;;;;2.65;1.92;;;;;;;23.38;41.78;100181.44;5033976;28;20037;-46
2022/05/24 11:35:23;;;;;;;1.88;1.77;;;;;;;23.38;41.99;100176.19;5034127;28;20033;-53
2022/05/24 11:37:51;;;;;;;2.27;2.07;;;;;;;23.39;41.74;100177.94;5009945;28;20037;-55
2022/05/24 11:40:38;;;;;;;3.47;2.35;;;;;;;23.39;41.85;100175.31;5036610;28;20116;-53
2022/05/24 11:43:10;;;;;;;2.13;1.90;;;;;;;23.40;41.61;100179.69;5046538;28;20052;-45
2022/05/24 11:45:40;;;;;;;2.35;2.17;;;;;;;23.41;42.19;100178.78;5034950;28;20466;-52
2022/05/24 11:48:08;;;;;;;4.22;2.60;;;;;;;23.44;41.83;100181.38;5043699;28;20397;-48
2022/05/24 11:50:33;;;;;;;2.42;2.22;;;;;;;23.46;41.98;100195.38;5034906;28;20043;-51
2022/05/24 11:53:31;;;;;;;4.50;2.03;;;;;;;23.44;41.87;100203.28;5036885;28;20033;-50
2022/05/24 11:55:56;;;;;;;2.67;1.90;;;;;;;23.46;41.50;100206.78;5053414;28;20123;-46
2022/05/24 11:58:30;;;;;;;4.80;2.50;;;;;;;23.46;42.44;100213.78;5036411;28;20128;-50
2022/05/24 12:01:24;;;;;;;2.70;2.00;;;;;;;23.50;41.49;100223.34;5053562;28;20309;-52
2022/05/24 12:10:01;;;;;;;4.05;2.20;;;;;;;23.54;41.27;100225.06;5053027;28;20106;-51
2022/05/24 12:12:37;;;;;;;2.85;1.92;;;;;;;23.55;41.76;100242.56;5036357;28;20025;-46
2022/05/24 12:15:11;;;;;;;3.33;2.20;;;;;;;23.62;41.48;100244.25;5046466;28;20386;-53
2022/05/24 12:17:37;;;;;;;;;;;;;;;23.60;41.88;100253.06;5050839;28;20041;-52
2022/05/24 12:20:04;;;;;;;3.80;2.27;;;;;;;23.61;41.93;100247.75;5048866;28;19958;-51